createdAt,value
2023-12-09T00:01:29.764Z,11.03
2023-12-09T00:04:07.523Z,10.63
2023-12-09T00:06:47.441Z,10.23
2023-12-09T00:09:35.154Z,10.33
2023-12-09T00:12:11.124Z,9.67
2023-12-09T00:14:45.969Z,10.10
2023-12-09T00:18:08.833Z,9.03
2023-12-09T00:24:03.339Z,10.40
2023-12-09T00:30:03.903Z,9.53
2023-12-09T00:33:02.418Z,9.20
2023-12-09T00:35:48.944Z,9.57
2023-12-09T00:38:23.722Z,10.07
2023-12-09T00:51:46.687Z,9.50
2023-12-09T00:54:54.012Z,9.30
2023-12-09T00:57:28.962Z,10.63
2023-12-09T01:00:11.375Z,9.33
2023-12-09T01:03:13.113Z,9.30
2023-12-09T01:06:25.969Z,9.97
2023-12-09T01:08:55.516Z,10.13
2023-12-09T01:11:33.203Z,9.70
2023-12-09T01:14:01.927Z,8.83
2023-12-09T01:16:32.220Z,10.03
2023-12-09T01:19:02.036Z,10.73
2023-12-09T01:21:30.875Z,9.47
2023-12-09T01:23:59.414Z,9.83
2023-12-09T01:26:30.672Z,9.50
2023-12-09T01:29:02.381Z,9.67
2023-12-09T01:31:34.946Z,10.30
2023-12-09T01:34:06.067Z,9.90
2023-12-09T01:36:35.117Z,9.70
2023-12-09T01:39:04.710Z,10.27
2023-12-09T01:41:33.482Z,8.90
2023-12-09T01:44:02.411Z,9.20
2023-12-09T01:46:48.386Z,7.93
2023-12-09T01:49:21.270Z,9.47
2023-12-09T01:51:50.172Z,8.47
2023-12-09T01:54:26.960Z,9.20
2023-12-09T01:57:07.465Z,8.97
2023-12-09T01:59:46.922Z,8.33
2023-12-09T02:02:18.724Z,9.27
2023-12-09T02:04:49.764Z,8.50
2023-12-09T02:07:22.355Z,8.53
2023-12-09T02:09:50.939Z,8.23
2023-12-09T02:13:03.344Z,9.13
2023-12-09T02:15:53.671Z,8.83
2023-12-09T02:18:26.221Z,11.93
2023-12-09T02:20:57.980Z,12.40
2023-12-09T02:23:27.024Z,14.40
2023-12-09T02:26:06.953Z,14.23
2023-12-09T02:28:46.952Z,15.50
2023-12-09T02:31:32.942Z,17.53
2023-12-09T02:34:14.087Z,18.30
2023-12-09T02:36:46.766Z,17.53
2023-12-09T02:39:21.301Z,16.07
2023-12-09T02:41:54.474Z,18.53
2023-12-09T02:44:23.506Z,16.83
2023-12-09T02:47:00.328Z,16.57
2023-12-09T02:49:28.809Z,16.97
2023-12-09T02:51:58.642Z,15.80
2023-12-09T02:54:29.484Z,14.67
2023-12-09T02:57:11.177Z,13.47
2023-12-09T02:59:42.369Z,16.17
2023-12-09T03:02:17.765Z,15.43
2023-12-09T03:04:46.552Z,15.80
2023-12-09T03:07:17.723Z,16.17
2023-12-09T03:09:47.091Z,16.23
2023-12-09T03:12:14.849Z,16.00
2023-12-09T03:14:48.807Z,16.53
2023-12-09T03:17:18.147Z,15.87
2023-12-09T03:19:50.622Z,14.30
2023-12-09T03:22:21.485Z,14.27
2023-12-09T03:24:53.869Z,13.50
2023-12-09T03:27:25.053Z,10.80
2023-12-09T03:29:54.864Z,11.03
2023-12-09T03:32:25.789Z,9.77
2023-12-09T03:34:55.709Z,10.33
2023-12-09T03:37:24.418Z,9.73
2023-12-09T03:40:01.408Z,9.90
2023-12-09T03:42:31.326Z,9.13
2023-12-09T03:45:00.389Z,10.60
2023-12-09T03:47:30.770Z,8.90
2023-12-09T03:49:59.258Z,9.53
2023-12-09T03:52:29.581Z,8.47
2023-12-09T03:54:59.345Z,7.87
2023-12-09T03:57:29.769Z,8.73
2023-12-09T03:59:58.268Z,8.27
2023-12-09T04:02:26.934Z,8.33
2023-12-09T04:04:58.641Z,7.27
2023-12-09T04:07:29.677Z,8.00
2023-12-09T04:10:00.582Z,8.20
2023-12-09T04:12:32.349Z,7.97
2023-12-09T04:15:01.932Z,8.27
2023-12-09T04:17:31.630Z,9.17
2023-12-09T04:20:03.201Z,9.20
2023-12-09T04:22:33.999Z,8.87
2023-12-09T04:25:06.725Z,8.37
2023-12-09T04:27:36.309Z,8.27
2023-12-09T04:30:18.243Z,8.13
2023-12-09T04:32:46.743Z,8.30
2023-12-09T04:35:16.040Z,8.50
2023-12-09T04:37:46.486Z,8.47
2023-12-09T04:40:18.796Z,8.70
2023-12-09T04:42:55.515Z,8.90
2023-12-09T04:45:34.260Z,7.73
2023-12-09T04:48:07.415Z,8.40
2023-12-09T04:50:37.675Z,9.97
2023-12-09T04:53:08.943Z,12.17
2023-12-09T04:55:39.090Z,13.27
2023-12-09T04:58:10.888Z,14.20
2023-12-09T05:00:42.389Z,14.87
2023-12-09T05:03:13.651Z,14.40
2023-12-09T05:05:44.841Z,14.60
2023-12-09T05:08:13.666Z,14.30
2023-12-09T05:10:49.748Z,12.80
2023-12-09T05:13:18.763Z,12.83
2023-12-09T05:15:47.321Z,10.80
2023-12-09T05:18:18.796Z,8.40
2023-12-09T05:20:48.811Z,8.03
2023-12-09T05:23:18.364Z,8.37
2023-12-09T05:25:50.941Z,8.47
2023-12-09T05:28:22.018Z,8.40
2023-12-09T05:30:50.149Z,8.40
2023-12-09T05:33:21.135Z,8.40
2023-12-09T05:35:50.376Z,10.23
2023-12-09T05:38:26.100Z,8.00
2023-12-09T05:41:04.467Z,8.50
2023-12-09T05:43:40.646Z,8.63
2023-12-09T05:46:35.673Z,10.13
2023-12-09T05:49:04.908Z,9.07
2023-12-09T05:51:33.663Z,9.87
2023-12-09T05:54:05.763Z,10.33
2023-12-09T05:56:35.706Z,9.40
2023-12-09T05:59:13.330Z,9.53
2023-12-09T06:01:42.793Z,10.00
2023-12-09T06:04:18.859Z,10.03
2023-12-09T06:06:47.294Z,9.33
2023-12-09T06:09:16.247Z,8.77
2023-12-09T06:11:45.174Z,9.80
2023-12-09T06:14:13.878Z,9.53
2023-12-09T06:16:46.743Z,9.00
2023-12-09T06:19:22.884Z,8.73
2023-12-09T06:21:53.836Z,10.87
2023-12-09T06:24:22.249Z,9.73
2023-12-09T06:26:52.241Z,9.83
2023-12-09T06:29:20.932Z,9.37
2023-12-09T06:34:38.566Z,9.93
2023-12-09T06:37:08.669Z,10.00
2023-12-09T06:39:39.169Z,10.00
2023-12-09T06:42:17.766Z,10.27
2023-12-09T06:44:56.544Z,10.30
2023-12-09T06:47:26.881Z,10.17
2023-12-09T06:50:04.531Z,9.90
2023-12-09T06:52:36.763Z,10.30
2023-12-09T06:55:08.526Z,11.00
2023-12-09T06:57:37.238Z,11.83
2023-12-09T07:00:15.420Z,11.23
2023-12-09T07:02:56.191Z,11.80
2023-12-09T07:05:37.563Z,11.20
2023-12-09T07:08:13.687Z,10.53
2023-12-09T07:10:52.164Z,11.03
2023-12-09T07:13:22.020Z,11.47
2023-12-09T07:15:59.341Z,10.83
2023-12-09T07:18:27.930Z,10.93
2023-12-09T07:20:57.580Z,10.70
2023-12-09T07:23:30.825Z,10.97
2023-12-09T07:26:07.405Z,10.97
2023-12-09T07:28:36.921Z,11.03
2023-12-09T07:31:06.949Z,11.13
2023-12-09T07:33:44.510Z,10.60
2023-12-09T07:36:14.442Z,10.33
2023-12-09T07:38:48.068Z,10.03
2023-12-09T07:41:17.331Z,9.77
2023-12-09T07:43:47.925Z,10.47
2023-12-09T07:46:16.281Z,11.63
2023-12-09T07:48:45.249Z,11.87
2023-12-09T07:51:16.443Z,10.80
2023-12-09T07:53:47.017Z,11.43
2023-12-09T07:56:18.241Z,11.40
2023-12-09T07:58:46.898Z,11.63
2023-12-09T08:01:16.241Z,11.23
2023-12-09T08:03:47.292Z,11.67
2023-12-09T08:06:18.902Z,10.80
2023-12-09T08:08:56.727Z,11.07
2023-12-09T08:11:25.714Z,12.63
2023-12-09T08:13:56.140Z,12.63
2023-12-09T08:16:24.848Z,12.63
2023-12-09T08:18:56.438Z,12.47
2023-12-09T08:21:26.935Z,12.47
2023-12-09T08:24:03.652Z,12.43
2023-12-09T08:26:33.782Z,12.60
2023-12-09T08:29:08.610Z,12.87
2023-12-09T08:31:37.602Z,12.87
2023-12-09T08:34:09.121Z,12.80
2023-12-09T08:36:44.998Z,12.37
2023-12-09T08:39:17.700Z,13.50
2023-12-09T08:41:48.541Z,13.13
2023-12-09T08:44:19.162Z,13.53
2023-12-09T08:46:48.487Z,13.33
2023-12-09T08:49:17.148Z,13.90
2023-12-09T08:51:52.410Z,15.23
2023-12-09T08:54:26.555Z,14.67
2023-12-09T08:56:58.862Z,15.00
2023-12-09T08:59:36.468Z,13.83
2023-12-09T09:02:07.091Z,14.43
2023-12-09T09:04:43.179Z,17.17
2023-12-09T09:07:21.697Z,15.83
2023-12-09T09:09:50.548Z,18.30
2023-12-09T09:12:21.652Z,18.80
2023-12-09T09:14:50.993Z,19.37
2023-12-09T09:20:02.893Z,18.67
2023-12-09T09:22:37.233Z,19.53
2023-12-09T09:25:14.369Z,19.33
2023-12-09T09:27:42.618Z,20.03
2023-12-09T09:30:12.084Z,20.53
2023-12-09T09:32:42.567Z,19.20
2023-12-09T09:35:14.060Z,20.00
2023-12-09T09:37:44.658Z,19.83
2023-12-09T09:40:15.712Z,19.77
2023-12-09T09:43:23.368Z,21.63
2023-12-09T09:45:58.656Z,17.83
2023-12-09T09:48:31.924Z,19.57
2023-12-09T09:51:09.149Z,20.77
2023-12-09T09:54:20.232Z,19.57
2023-12-09T09:56:51.824Z,18.63
2023-12-09T09:59:19.988Z,20.27
2023-12-09T10:01:57.619Z,17.80
2023-12-09T10:04:26.090Z,19.67
2023-12-09T10:06:57.974Z,18.37
2023-12-09T10:09:25.204Z,16.83
2023-12-09T10:11:52.779Z,17.93
2023-12-09T10:14:26.837Z,17.77
2023-12-09T10:17:00.786Z,18.60
2023-12-09T10:19:39.364Z,16.93
2023-12-09T10:22:09.397Z,18.53
2023-12-09T10:24:49.921Z,18.33
2023-12-09T10:27:34.795Z,16.53
2023-12-09T10:30:05.839Z,17.37
2023-12-09T10:32:35.216Z,17.43
2023-12-09T10:35:07.695Z,17.53
2023-12-09T10:37:39.230Z,18.60
2023-12-09T10:40:09.418Z,17.87
2023-12-09T10:42:41.261Z,19.00
2023-12-09T10:45:22.012Z,18.67
2023-12-09T10:47:53.707Z,18.53
2023-12-09T10:50:21.481Z,18.13
2023-12-09T10:52:50.427Z,17.87
2023-12-09T10:55:20.458Z,17.17
2023-12-09T10:57:55.531Z,16.40
2023-12-09T11:00:35.813Z,17.17
2023-12-09T11:03:11.202Z,17.00
2023-12-09T11:05:54.057Z,16.53
2023-12-09T11:08:29.651Z,16.97
2023-12-09T11:10:59.846Z,16.20
2023-12-09T11:13:33.868Z,16.07
2023-12-09T11:16:22.993Z,15.07
2023-12-09T11:18:59.781Z,17.73
2023-12-09T11:21:31.606Z,15.77
2023-12-09T11:24:01.110Z,15.30
2023-12-09T11:26:35.869Z,15.70
2023-12-09T11:29:16.284Z,15.57
2023-12-09T11:31:51.897Z,15.27
2023-12-09T11:34:28.074Z,15.17
2023-12-09T11:37:05.693Z,15.00
2023-12-09T11:39:36.232Z,14.73
2023-12-09T11:42:07.940Z,15.27
2023-12-09T11:44:39.331Z,15.47
2023-12-09T11:47:17.015Z,15.37
2023-12-09T11:49:53.125Z,14.60
2023-12-09T11:52:25.129Z,13.87
2023-12-09T11:55:11.489Z,14.57
2023-12-09T11:57:41.431Z,15.10
2023-12-09T12:00:18.178Z,14.67
2023-12-09T12:02:58.008Z,14.77
2023-12-09T12:05:28.287Z,13.03
2023-12-09T12:07:57.869Z,12.60
2023-12-09T12:10:29.489Z,13.00
2023-12-09T12:12:58.657Z,12.37
2023-12-09T12:15:29.388Z,11.67
2023-12-09T12:18:10.280Z,12.00
2023-12-09T12:20:48.272Z,11.10
2023-12-09T12:23:26.444Z,12.27
2023-12-09T12:26:06.249Z,10.47
2023-12-09T12:28:36.680Z,11.30
2023-12-09T12:31:11.265Z,12.20
2023-12-09T12:33:41.851Z,10.97
2023-12-09T12:36:16.770Z,10.30
2023-12-09T12:38:55.300Z,12.23
2023-12-09T12:41:22.937Z,12.43
2023-12-09T12:43:51.666Z,14.27
2023-12-09T12:46:21.727Z,14.90
2023-12-09T12:48:52.441Z,16.10
2023-12-09T12:51:29.675Z,15.80
2023-12-09T12:53:57.589Z,14.17
2023-12-09T12:56:28.722Z,15.17
2023-12-09T12:58:57.212Z,15.63
2023-12-09T13:01:30.640Z,15.60
2023-12-09T13:04:00.899Z,14.97
2023-12-09T13:06:30.259Z,16.67
2023-12-09T13:08:58.505Z,15.27
2023-12-09T13:11:29.872Z,15.60
2023-12-09T13:14:05.891Z,15.30
2023-12-09T13:16:41.780Z,14.33
2023-12-09T13:19:13.659Z,14.50
2023-12-09T13:21:44.458Z,14.83
2023-12-09T13:24:16.019Z,13.70
2023-12-09T13:26:46.284Z,12.93
2023-12-09T13:29:15.301Z,14.20
2023-12-09T13:31:44.320Z,13.60
2023-12-09T13:34:14.426Z,13.83
2023-12-09T13:36:45.500Z,14.33
2023-12-09T13:39:16.831Z,18.23
2023-12-09T13:41:45.715Z,17.57
2023-12-09T13:44:15.900Z,18.13
2023-12-09T13:46:50.321Z,18.10
2023-12-09T13:49:22.895Z,17.53
2023-12-09T13:52:00.967Z,18.67
2023-12-09T13:54:29.014Z,19.00
2023-12-09T13:57:05.166Z,20.33
2023-12-09T13:59:34.733Z,17.57
2023-12-09T14:02:10.238Z,19.27
2023-12-09T14:04:38.461Z,17.27
2023-12-09T14:07:12.422Z,18.60
2023-12-09T14:09:41.688Z,19.57
2023-12-09T14:12:14.101Z,18.37
2023-12-09T14:14:43.672Z,18.33
2023-12-09T14:17:14.945Z,18.53
2023-12-09T14:19:43.512Z,18.97
2023-12-09T14:22:19.559Z,18.00
2023-12-09T14:24:48.729Z,18.07
2023-12-09T14:27:18.037Z,17.03
2023-12-09T14:29:49.357Z,18.53
2023-12-09T14:32:28.813Z,16.67
2023-12-09T14:35:01.689Z,18.00
2023-12-09T14:40:20.969Z,16.93
2023-12-09T14:42:52.736Z,16.07
2023-12-09T14:45:22.543Z,17.47
2023-12-09T14:47:58.387Z,16.20
2023-12-09T14:50:35.060Z,16.70
2023-12-09T14:53:05.866Z,16.97
2023-12-09T14:55:36.253Z,17.43
2023-12-09T14:58:11.354Z,18.67
2023-12-09T15:00:40.328Z,17.73
2023-12-09T15:03:12.064Z,17.00
2023-12-09T15:05:39.536Z,19.90
2023-12-09T15:08:09.063Z,17.93
2023-12-09T15:10:39.794Z,18.47
2023-12-09T15:13:09.058Z,17.57
2023-12-09T15:15:43.855Z,17.37
2023-12-09T15:18:14.508Z,18.10
2023-12-09T15:20:48.485Z,16.97
2023-12-09T15:23:16.942Z,18.30
2023-12-09T15:25:46.757Z,18.03
2023-12-09T15:28:23.816Z,17.83
2023-12-09T15:30:53.052Z,17.80
2023-12-09T15:33:22.334Z,18.57
2023-12-09T15:35:50.982Z,17.30
2023-12-09T15:38:19.872Z,17.37
2023-12-09T15:40:58.004Z,17.43
2023-12-09T15:43:31.603Z,17.57
2023-12-09T15:46:03.478Z,17.10
2023-12-09T15:48:34.138Z,18.43
2023-12-09T15:51:03.570Z,17.20
2023-12-09T15:53:38.620Z,18.83
2023-12-09T15:56:12.893Z,17.87
2023-12-09T15:58:42.121Z,17.97
2023-12-09T16:01:16.271Z,17.17
2023-12-09T16:03:45.978Z,16.47
2023-12-09T16:06:17.890Z,18.63
2023-12-09T16:08:48.669Z,16.33
2023-12-09T16:11:37.801Z,16.37
2023-12-09T16:14:05.370Z,17.10
2023-12-09T16:16:32.827Z,17.60
2023-12-09T16:19:02.311Z,17.57
2023-12-09T16:21:34.654Z,16.43
2023-12-09T16:24:09.759Z,19.53
2023-12-09T16:26:39.756Z,17.53
2023-12-09T16:29:07.527Z,16.77
2023-12-09T16:31:37.762Z,17.33
2023-12-09T16:34:08.672Z,17.27
2023-12-09T16:36:37.784Z,16.87
2023-12-09T16:39:07.714Z,18.63
2023-12-09T16:41:36.740Z,19.07
2023-12-09T16:44:07.762Z,17.83
2023-12-09T16:46:37.245Z,18.67
2023-12-09T16:49:09.417Z,19.20
2023-12-09T16:51:41.043Z,19.47
2023-12-09T16:54:10.024Z,17.87
2023-12-09T16:56:48.335Z,18.97
2023-12-09T16:59:21.078Z,20.10
2023-12-09T17:01:48.492Z,22.03
2023-12-09T17:04:17.666Z,20.80
2023-12-09T17:06:46.089Z,21.10
2023-12-09T17:09:17.427Z,21.77
2023-12-09T17:11:46.446Z,19.93
2023-12-09T17:14:21.491Z,19.93
2023-12-09T17:16:51.191Z,20.07
2023-12-09T17:19:22.012Z,19.90
2023-12-09T17:21:59.463Z,21.63
2023-12-09T17:24:31.920Z,19.77
2023-12-09T17:27:03.217Z,20.97
2023-12-09T17:29:39.508Z,22.50
2023-12-09T17:32:12.800Z,21.97
2023-12-09T17:34:42.059Z,22.67
2023-12-09T17:37:14.373Z,22.77
2023-12-09T17:39:48.155Z,22.70
2023-12-09T17:42:17.841Z,24.60
2023-12-09T17:44:46.480Z,24.23
2023-12-09T17:47:16.242Z,22.07
2023-12-09T17:49:49.223Z,21.03
2023-12-09T17:52:19.285Z,19.00
2023-12-09T17:54:51.105Z,19.77
2023-12-09T17:57:19.923Z,21.57
2023-12-09T17:59:59.548Z,21.03
2023-12-09T18:02:29.072Z,20.93
2023-12-09T18:04:58.529Z,23.83
2023-12-09T18:07:32.463Z,20.60
2023-12-09T18:10:02.239Z,20.70
2023-12-09T18:12:39.444Z,19.93
2023-12-09T18:17:54.777Z,20.57
2023-12-09T18:20:22.776Z,19.27
2023-12-09T18:23:00.252Z,20.10
2023-12-09T18:25:36.840Z,22.10
2023-12-09T18:28:09.999Z,20.70
2023-12-09T18:30:42.469Z,20.87
2023-12-09T18:33:12.539Z,19.27
2023-12-09T18:35:42.757Z,21.67
2023-12-09T18:38:13.383Z,21.87
2023-12-09T18:40:43.680Z,21.10
2023-12-09T18:43:23.688Z,21.60
2023-12-09T18:45:54.902Z,21.00
2023-12-09T18:48:28.213Z,18.60
2023-12-09T18:51:01.484Z,19.87
2023-12-09T18:53:31.082Z,19.37
2023-12-09T18:58:48.691Z,19.17
2023-12-09T19:01:18.901Z,21.50
2023-12-09T19:03:48.340Z,17.43
2023-12-09T19:06:18.496Z,18.03
2023-12-09T19:08:47.054Z,19.00
2023-12-09T19:11:22.237Z,20.17
2023-12-09T19:13:55.298Z,17.83
2023-12-09T19:16:23.712Z,20.57
2023-12-09T19:18:55.222Z,16.80
2023-12-09T19:21:26.885Z,18.87
2023-12-09T19:23:56.889Z,17.30
2023-12-09T19:26:30.901Z,19.27
2023-12-09T19:29:02.776Z,18.57
2023-12-09T19:31:31.809Z,19.13
2023-12-09T19:34:10.658Z,20.30
2023-12-09T19:36:42.351Z,18.70
2023-12-09T19:39:16.349Z,18.40
2023-12-09T19:41:46.492Z,20.80
2023-12-09T19:44:22.609Z,19.43
2023-12-09T19:46:54.713Z,20.27
2023-12-09T19:49:25.998Z,19.37
2023-12-09T19:51:55.889Z,19.83
2023-12-09T19:54:26.703Z,20.23
2023-12-09T19:56:56.265Z,20.80
2023-12-09T19:59:26.785Z,19.33
2023-12-09T20:01:56.750Z,21.03
2023-12-09T20:04:26.787Z,20.67
2023-12-09T20:06:58.619Z,19.37
2023-12-09T20:09:29.935Z,20.87
2023-12-09T20:12:07.452Z,19.70
2023-12-09T20:14:36.607Z,20.37
2023-12-09T20:17:09.451Z,19.17
2023-12-09T20:19:42.752Z,20.20
2023-12-09T20:22:14.496Z,19.27
2023-12-09T20:24:51.241Z,22.47
2023-12-09T20:27:19.996Z,21.17
2023-12-09T20:29:49.695Z,19.47
2023-12-09T20:32:16.970Z,20.80
2023-12-09T20:34:44.280Z,21.40
2023-12-09T20:37:13.679Z,20.57
2023-12-09T20:39:43.596Z,19.23
2023-12-09T20:42:14.034Z,21.87
2023-12-09T20:44:43.896Z,19.87
2023-12-09T20:47:14.011Z,19.17
2023-12-09T20:49:44.154Z,20.17
2023-12-09T20:52:12.717Z,21.00
2023-12-09T20:54:47.129Z,21.07
2023-12-09T20:57:20.473Z,21.37
2023-12-09T20:59:50.484Z,19.43
2023-12-09T21:02:27.265Z,19.90
2023-12-09T21:04:59.592Z,19.57
2023-12-09T21:07:35.825Z,21.00
2023-12-09T21:10:06.102Z,21.17
2023-12-09T21:12:37.730Z,19.27
2023-12-09T21:15:15.411Z,19.43
2023-12-09T21:17:51.523Z,20.93
2023-12-09T21:20:28.909Z,18.93
2023-12-09T21:22:59.619Z,19.57
2023-12-09T21:25:28.305Z,21.30
2023-12-09T21:27:57.553Z,21.13
2023-12-09T21:30:28.123Z,20.33
2023-12-09T21:33:00.366Z,19.83
2023-12-09T21:35:30.175Z,19.97
2023-12-09T21:37:58.846Z,21.97
2023-12-09T21:40:27.522Z,20.57
2023-12-09T21:43:04.131Z,17.57
2023-12-09T21:45:34.005Z,19.60
2023-12-09T21:48:11.896Z,20.97
2023-12-09T21:50:40.975Z,20.83
2023-12-09T21:53:15.991Z,19.43
2023-12-09T21:55:45.190Z,21.17
2023-12-09T21:58:22.232Z,20.10
2023-12-09T22:00:53.399Z,21.47
2023-12-09T22:03:25.388Z,19.87
2023-12-09T22:06:01.860Z,21.50
2023-12-09T22:11:17.004Z,19.53
2023-12-09T22:13:48.882Z,17.83
2023-12-09T22:16:24.142Z,19.67
2023-12-09T22:21:45.037Z,18.57
2023-12-09T22:27:07.964Z,17.73
2023-12-09T22:29:38.380Z,15.40
2023-12-09T22:32:08.125Z,16.13
2023-12-09T22:34:37.011Z,17.73
2023-12-09T22:37:11.130Z,17.00
2023-12-09T22:39:41.411Z,17.23
2023-12-09T22:42:14.095Z,17.93
2023-12-09T22:44:47.730Z,16.97
2023-12-09T22:47:25.004Z,17.83
2023-12-09T22:49:55.434Z,16.47
2023-12-09T22:52:25.879Z,17.03
2023-12-09T22:54:59.598Z,17.23
2023-12-09T22:57:28.357Z,17.83
2023-12-09T22:59:58.925Z,18.23
2023-12-09T23:02:34.815Z,17.33
2023-12-09T23:05:05.157Z,17.03
2023-12-09T23:07:35.447Z,18.07
2023-12-09T23:10:07.607Z,17.60
2023-12-09T23:12:43.508Z,17.83
2023-12-09T23:15:16.618Z,21.10
2023-12-09T23:17:47.239Z,17.43
2023-12-09T23:20:16.906Z,16.73
2023-12-09T23:22:50.408Z,16.90
2023-12-09T23:25:20.920Z,18.10
2023-12-09T23:27:54.510Z,16.83
2023-12-09T23:30:31.157Z,16.83
2023-12-09T23:33:00.272Z,16.20
2023-12-09T23:35:31.838Z,16.77
2023-12-09T23:38:04.090Z,16.83
2023-12-09T23:40:33.703Z,16.13
2023-12-09T23:43:08.339Z,17.17
2023-12-09T23:45:38.739Z,16.97
2023-12-09T23:48:15.742Z,16.67
2023-12-09T23:50:51.522Z,17.33
2023-12-09T23:53:22.117Z,17.60
2023-12-09T23:55:52.847Z,16.90
2023-12-09T23:58:21.667Z,15.77
